»·PEaware :: PRD269 KCOS-KDEN

PRD269 :: KCOS-KDEN

FLIGHT INFORMATION

Flight Status: Arrived
Operator: Unknown
More flights by this operator :: More flights under this callsign
Pilot: Anonymous 17514 (17514)
Aircraft: CESSNA 208 CARAVAN
(C208)
More flights by this aircraft type
Origin: KCOS City Of Colorado Springs Mun
United States
Destination: KDEN Denver Intl
United States
More flights between these airports :: More routes between these airports
Route: +COS6 ELLZA MASHD TRAIN
File this flight plan on PilotEdge
Remarks:
Altitude:
(Current/Filed)
12,000ft
Speed:
(Current/Filed)
140kts
Departed: 05-May-18 08:55 PM
Arrived: 05-May-18 09:28 PM
Distance/Time
Traveled:
62nm/0:33
Distance/Time
To Go:
Arrived

Flight Plot

Page will automatically refresh every two minutes.

Flight plan parsing failed; only flown route is shown


Map Options




Map Legend


Flown Route
Filed Route
Departure Airport
Arrival Airport
Navaid (VOR, NDB)
Fix

Horizontal Profiles

Position Reports

Time Latitude Longitude Heading Altitude Ground
Speed
05-May-18 20:32 38.799906 -104.702404 180 6108ft 0kts
05-May-18 20:33 38.799906 -104.702404 180 6108ft 0kts
05-May-18 20:34 38.799906 -104.702404 180 6108ft 0kts
05-May-18 20:35 38.799906 -104.702404 180 6108ft 0kts
05-May-18 20:36 38.799906 -104.702404 180 6108ft 0kts
05-May-18 20:37 38.799906 -104.702404 180 6108ft 0kts
05-May-18 20:38 38.799906 -104.702404 180 6108ft 0kts
05-May-18 20:39 38.799906 -104.702404 180 6108ft 0kts
05-May-18 20:40 38.799906 -104.702404 180 6108ft 0kts
05-May-18 20:41 38.799906 -104.702404 180 6108ft 0kts
05-May-18 20:42 38.799906 -104.702404 180 6108ft 0kts
05-May-18 20:43 38.799906 -104.702404 180 6108ft 0kts
05-May-18 20:44 38.799906 -104.702404 180 6108ft 0kts
05-May-18 20:45 38.799906 -104.702404 180 6108ft 0kts
05-May-18 20:46 38.799906 -104.702404 180 6108ft 0kts
05-May-18 20:47 38.800375 -104.702407 179 6108ft 0kts
05-May-18 20:48 38.800375 -104.702407 179 6108ft 0kts
05-May-18 20:49 38.800256 -104.704017 271 6102ft 19kts
05-May-18 20:50 38.803130 -104.707115 270 6095ft 22kts
05-May-18 20:51 38.801957 -104.714000 179 6078ft 18kts
05-May-18 20:52 38.794965 -104.714013 178 6062ft 27kts
05-May-18 20:53 38.793959 -104.714624 270 6060ft 0kts
05-May-18 20:54 38.794421 -104.715967 356 6054ft 0kts
05-May-18 20:55 38.812644 -104.718526 338 6729ft 89kts
05-May-18 20:56 38.834572 -104.700209 39 7430ft 108kts
05-May-18 20:57 38.861041 -104.677944 25 8017ft 134kts
05-May-18 20:58 38.896990 -104.656191 31 8725ft 149kts
05-May-18 20:59 38.935618 -104.637962 9 9424ft 149kts
05-May-18 21:00 38.976160 -104.630717 3 10114ft 148kts
05-May-18 21:01 39.016470 -104.625930 1 10804ft 145kts
05-May-18 21:02 39.056149 -104.621694 0 11491ft 143kts
05-May-18 21:03 39.095507 -104.617595 0 12182ft 141kts
05-May-18 21:04 39.133094 -104.605945 16 12704ft 153kts
05-May-18 21:05 39.177056 -104.583135 17 12186ft 182kts
05-May-18 21:06 39.222322 -104.562764 0 12036ft 158kts
05-May-18 21:07 39.264351 -104.559826 359 12077ft 150kts
05-May-18 21:08 39.307975 -104.557934 348 12067ft 162kts
05-May-18 21:09 39.352568 -104.566899 348 12050ft 165kts
05-May-18 21:10 39.398242 -104.576439 348 11739ft 170kts
05-May-18 21:11 39.444418 -104.586357 348 11046ft 168kts
05-May-18 21:12 39.490454 -104.595955 350 10351ft 168kts
05-May-18 21:13 39.535312 -104.605224 350 10000ft 154kts
05-May-18 21:14 39.574813 -104.592582 17 10004ft 151kts
05-May-18 21:15 39.614423 -104.573564 17 10004ft 156kts
05-May-18 21:16 39.658333 -104.569051 358 9580ft 170kts
05-May-18 21:17 39.706338 -104.571064 358 8879ft 174kts
05-May-18 21:18 39.754717 -104.573487 358 8178ft 175kts
05-May-18 21:19 39.802203 -104.576003 358 7877ft 161kts
05-May-18 21:20 39.845671 -104.578013 358 7964ft 155kts
05-May-18 21:21 39.888616 -104.579741 358 7959ft 157kts
05-May-18 21:22 39.928524 -104.592196 280 7899ft 167kts
05-May-18 21:23 39.924308 -104.638313 270 7418ft 100kts
05-May-18 21:24 39.907905 -104.659440 173 6532ft 94kts
05-May-18 21:25 39.885328 -104.659038 182 5993ft 71kts
05-May-18 21:26 39.864720 -104.659901 184 5606ft 77kts
05-May-18 21:27 39.847338 -104.660194 181 5439ft 54kts
05-May-18 21:28 39.840264 -104.661739 225 5439ft 3kts
05-May-18 21:29 39.839548 -104.665264 268 5439ft 0kts
05-May-18 21:30 39.839548 -104.665264 268 5439ft 0kts

Navigation Log

Ident Type
Flight plan parsing failed, navigation log unavailable